createdAt,value
2017-06-20T00:01:01.219Z,95813.05
2017-06-20T00:03:28.753Z,95819.59
2017-06-20T00:05:56.272Z,95813.07
2017-06-20T00:08:23.834Z,95817.09
2017-06-20T00:10:51.349Z,95809.46
2017-06-20T00:13:18.958Z,95816.84
2017-06-20T00:15:46.541Z,95821.59
2017-06-20T00:18:14.140Z,95818.78
2017-06-20T00:20:41.933Z,95818.16
2017-06-20T00:23:09.506Z,95810.28
2017-06-20T00:25:37.045Z,95814.34
2017-06-20T00:28:04.556Z,95814.81
2017-06-20T00:30:32.223Z,95808.13
2017-06-20T00:32:59.791Z,95805.59
2017-06-20T00:35:27.315Z,95809.36
2017-06-20T00:37:54.904Z,95806.28
2017-06-20T00:40:22.445Z,95811.03
2017-06-20T00:42:49.982Z,95802.41
2017-06-20T00:45:17.568Z,95809.09
2017-06-20T00:47:45.353Z,95807.78
2017-06-20T00:50:12.859Z,95807.60
2017-06-20T00:52:40.401Z,95813.89
2017-06-20T00:55:07.920Z,95809.05
2017-06-20T00:57:35.717Z,95814.33
2017-06-20T01:00:04.433Z,95810.13
2017-06-20T01:02:31.985Z,95807.91
2017-06-20T01:04:59.523Z,95805.66
2017-06-20T01:07:27.102Z,95800.99
2017-06-20T01:09:55.289Z,95803.44
2017-06-20T01:12:22.812Z,95803.41
2017-06-20T01:14:50.357Z,95802.45
2017-06-20T01:17:17.874Z,95803.44
2017-06-20T01:19:45.401Z,95800.05
2017-06-20T01:22:12.945Z,95804.50
2017-06-20T01:24:40.456Z,95794.88
2017-06-20T01:27:07.978Z,95805.75
2017-06-20T01:29:35.573Z,95798.77
2017-06-20T01:32:03.222Z,95796.86
2017-06-20T01:34:31.125Z,95794.02
2017-06-20T01:36:58.795Z,95801.66
2017-06-20T01:39:26.583Z,95795.78
2017-06-20T01:41:54.340Z,95800.97
2017-06-20T01:44:21.883Z,95795.73
2017-06-20T01:46:49.481Z,95799.29
2017-06-20T01:49:17.065Z,95791.98
2017-06-20T01:51:44.635Z,95801.06
2017-06-20T01:54:12.256Z,95796.27
2017-06-20T01:56:39.879Z,95789.91
2017-06-20T01:59:07.486Z,95787.00
2017-06-20T02:01:35.942Z,95789.91
2017-06-20T02:04:03.904Z,95789.21
2017-06-20T02:06:31.825Z,95785.16
2017-06-20T02:08:59.451Z,95793.24
2017-06-20T02:11:27.034Z,95795.27
2017-06-20T02:13:56.332Z,95803.33
2017-06-20T02:16:26.471Z,95798.42
2017-06-20T02:18:54.177Z,95803.08
2017-06-20T02:21:21.744Z,95806.77
2017-06-20T02:23:49.330Z,95796.91
2017-06-20T02:26:16.837Z,95807.52
2017-06-20T02:28:44.336Z,95807.16
2017-06-20T02:31:11.914Z,95814.55
2017-06-20T02:33:39.433Z,95816.28
2017-06-20T02:36:06.969Z,95815.72
2017-06-20T02:38:34.555Z,95816.77
2017-06-20T02:41:02.052Z,95810.55
2017-06-20T02:43:29.553Z,95812.88
2017-06-20T02:45:57.157Z,95820.22
2017-06-20T02:48:24.676Z,95812.48
2017-06-20T02:50:52.194Z,95822.05
2017-06-20T02:53:19.753Z,95818.47
2017-06-20T02:55:47.298Z,95819.24
2017-06-20T02:58:14.864Z,95826.11
2017-06-20T03:00:42.447Z,95822.94
2017-06-20T03:03:09.963Z,95829.48
2017-06-20T03:05:37.470Z,95826.95
2017-06-20T03:08:05.097Z,95830.03
2017-06-20T03:10:32.750Z,95834.97
2017-06-20T03:13:00.269Z,95831.53
2017-06-20T03:15:27.841Z,95826.77
2017-06-20T03:17:55.360Z,95825.73
2017-06-20T03:20:22.920Z,95827.84
2017-06-20T03:22:50.532Z,95825.55
2017-06-20T03:25:18.050Z,95825.09
2017-06-20T03:27:45.557Z,95829.77
2017-06-20T03:30:13.206Z,95829.17
2017-06-20T03:32:40.699Z,95831.23
2017-06-20T03:35:08.226Z,95831.36
2017-06-20T03:37:35.836Z,95837.67
2017-06-20T03:40:03.378Z,95829.86
2017-06-20T03:42:30.890Z,95829.38
2017-06-20T03:44:58.445Z,95830.47
2017-06-20T03:47:26.282Z,95830.89
2017-06-20T03:49:53.820Z,95831.27
2017-06-20T03:52:21.450Z,95833.04
2017-06-20T03:54:48.984Z,95832.47
2017-06-20T03:57:16.489Z,95830.16
2017-06-20T03:59:44.083Z,95822.54
2017-06-20T04:02:11.667Z,95818.12
2017-06-20T04:04:39.180Z,95821.52
2017-06-20T04:07:06.704Z,95817.74
2017-06-20T04:09:34.314Z,95815.40
2017-06-20T04:12:01.868Z,95825.20
2017-06-20T04:14:29.434Z,95817.53
2017-06-20T04:16:56.994Z,95808.52
2017-06-20T04:19:24.511Z,95811.84
2017-06-20T04:21:52.088Z,95807.25
2017-06-20T04:24:19.920Z,95811.45
2017-06-20T04:26:48.132Z,95811.48
2017-06-20T04:29:16.232Z,95807.73
2017-06-20T04:31:44.602Z,95800.26
2017-06-20T04:34:12.137Z,95798.17
2017-06-20T04:36:39.716Z,95804.83
2017-06-20T04:39:07.264Z,95804.04
2017-06-20T04:41:34.776Z,95800.92
2017-06-20T04:44:02.312Z,95802.07
2017-06-20T04:46:29.877Z,95806.09
2017-06-20T04:48:57.458Z,95812.41
2017-06-20T04:51:25.116Z,95815.13
2017-06-20T04:54:02.633Z,95809.66
2017-06-20T04:56:30.164Z,95816.19
2017-06-20T04:58:57.874Z,95812.34
2017-06-20T05:01:33.205Z,95813.36
2017-06-20T05:04:00.866Z,95822.38
2017-06-20T05:06:35.861Z,95825.80
2017-06-20T05:09:03.434Z,95826.77
2017-06-20T05:11:31.197Z,95828.80
2017-06-20T05:13:59.229Z,95825.67
2017-06-20T05:16:26.766Z,95816.33
2017-06-20T05:18:54.316Z,95821.32
2017-06-20T05:21:21.919Z,95816.86
2017-06-20T05:23:50.243Z,95813.40
2017-06-20T05:26:18.002Z,95818.05
2017-06-20T05:28:45.600Z,95819.98
2017-06-20T05:31:13.799Z,95819.00
2017-06-20T05:33:41.561Z,95813.34
2017-06-20T05:36:09.097Z,95821.86
2017-06-20T05:38:36.689Z,95826.25
2017-06-20T05:41:04.434Z,95827.75
2017-06-20T05:43:31.943Z,95827.46
2017-06-20T05:45:59.548Z,95817.65
2017-06-20T05:48:28.008Z,95819.02
2017-06-20T05:50:55.612Z,95824.42
2017-06-20T05:53:23.265Z,95828.44
2017-06-20T05:55:50.806Z,95826.31
2017-06-20T05:58:19.157Z,95828.34
2017-06-20T06:00:46.776Z,95822.73
2017-06-20T06:03:15.209Z,95832.19
2017-06-20T06:05:43.123Z,95829.10
2017-06-20T06:08:10.858Z,95835.38
2017-06-20T06:10:38.380Z,95834.30
2017-06-20T06:13:05.933Z,95830.36
2017-06-20T06:15:33.494Z,95833.48
2017-06-20T06:18:01.018Z,95828.26
2017-06-20T06:20:28.526Z,95821.83
2017-06-20T06:22:56.098Z,95818.86
2017-06-20T06:25:23.707Z,95822.15
2017-06-20T06:27:51.251Z,95814.73
2017-06-20T06:30:18.895Z,95812.56
2017-06-20T06:32:46.462Z,95814.36
2017-06-20T06:35:13.985Z,95809.63
2017-06-20T06:37:41.560Z,95815.59
2017-06-20T06:40:09.109Z,95805.19
2017-06-20T06:42:36.675Z,95806.55
2017-06-20T06:45:04.290Z,95807.73
2017-06-20T06:47:31.823Z,95806.75
2017-06-20T06:49:59.354Z,95806.73
2017-06-20T06:52:26.927Z,95806.54
2017-06-20T06:54:54.434Z,95796.89
2017-06-20T06:57:21.942Z,95800.23
2017-06-20T06:59:49.504Z,95804.48
2017-06-20T07:02:17.058Z,95796.29
2017-06-20T07:04:44.571Z,95795.80
2017-06-20T07:07:12.164Z,95796.43
2017-06-20T07:09:39.786Z,95790.33
2017-06-20T07:12:07.309Z,95792.00
2017-06-20T07:14:34.859Z,95785.75
2017-06-20T07:17:02.443Z,95790.41
2017-06-20T07:19:29.968Z,95784.28
2017-06-20T07:21:57.494Z,95790.48
2017-06-20T07:24:25.034Z,95784.02
2017-06-20T07:26:52.607Z,95791.86
2017-06-20T07:29:20.113Z,95789.70
2017-06-20T07:31:47.687Z,95786.00
2017-06-20T07:34:15.208Z,95784.99
2017-06-20T07:36:42.779Z,95789.74
2017-06-20T07:39:10.330Z,95786.14
2017-06-20T07:41:37.911Z,95788.21
2017-06-20T07:44:05.430Z,95788.95
2017-06-20T07:46:33.103Z,95786.19
2017-06-20T07:49:00.613Z,95791.56
2017-06-20T07:51:28.124Z,95788.30
2017-06-20T07:53:55.680Z,95787.67
2017-06-20T07:56:23.186Z,95787.98
2017-06-20T07:58:50.690Z,95782.72
2017-06-20T08:01:18.277Z,95786.09
2017-06-20T08:03:45.820Z,95785.22
2017-06-20T08:06:13.382Z,95787.72
2017-06-20T08:08:40.914Z,95790.09
2017-06-20T08:11:08.417Z,95788.25
2017-06-20T08:13:35.994Z,95781.05
2017-06-20T08:16:03.614Z,95777.70
2017-06-20T08:18:31.126Z,95785.78
2017-06-20T08:21:04.168Z,95782.80
2017-06-20T08:23:31.678Z,95783.78
2017-06-20T08:25:59.182Z,95782.23
2017-06-20T08:28:26.716Z,95783.84
2017-06-20T08:30:55.072Z,95784.89
2017-06-20T08:33:22.631Z,95784.28
2017-06-20T08:35:50.161Z,95781.08
2017-06-20T08:38:17.710Z,95776.72
2017-06-20T08:40:45.272Z,95776.85
2017-06-20T08:43:12.803Z,95777.68
2017-06-20T08:45:40.348Z,95772.56
2017-06-20T08:48:07.875Z,95772.33
2017-06-20T08:50:35.403Z,95776.52
2017-06-20T08:53:02.948Z,95769.13
2017-06-20T08:55:30.485Z,95775.31
2017-06-20T08:57:58.046Z,95775.95
2017-06-20T09:00:25.971Z,95769.31
2017-06-20T09:02:53.477Z,95769.03
2017-06-20T09:05:21.038Z,95767.72
2017-06-20T09:07:48.628Z,95777.80
2017-06-20T09:10:16.123Z,95771.13
2017-06-20T09:12:43.621Z,95773.55
2017-06-20T09:15:11.262Z,95774.80
2017-06-20T09:17:38.777Z,95767.62
2017-06-20T09:20:06.290Z,95762.51
2017-06-20T09:22:33.866Z,95761.59
2017-06-20T09:25:01.391Z,95764.66
2017-06-20T09:27:28.908Z,95757.11
2017-06-20T09:29:56.462Z,95762.03
2017-06-20T09:32:24.078Z,95758.02
2017-06-20T09:34:51.645Z,95756.72
2017-06-20T09:37:19.202Z,95753.25
2017-06-20T09:39:46.780Z,95758.28
2017-06-20T09:42:14.412Z,95756.58
2017-06-20T09:44:41.951Z,95759.30
2017-06-20T09:47:09.581Z,95756.86
2017-06-20T09:49:37.116Z,95756.77
2017-06-20T09:52:04.671Z,95755.37
2017-06-20T09:54:32.290Z,95755.98
2017-06-20T09:56:59.934Z,95753.14
2017-06-20T09:59:27.494Z,95754.94
2017-06-20T10:01:55.071Z,95752.16
2017-06-20T10:04:22.639Z,95749.03
2017-06-20T10:06:50.232Z,95742.38
2017-06-20T10:09:17.778Z,95746.97
2017-06-20T10:11:45.340Z,95751.86
2017-06-20T10:14:13.135Z,95743.64
2017-06-20T10:16:40.766Z,95737.69
2017-06-20T10:19:08.381Z,95745.49
2017-06-20T10:21:35.890Z,95739.01
2017-06-20T10:24:03.456Z,95736.83
2017-06-20T10:26:30.986Z,95732.22
2017-06-20T10:28:58.520Z,95735.19
2017-06-20T10:31:26.209Z,95737.89
2017-06-20T10:33:53.798Z,95734.52
2017-06-20T10:36:21.349Z,95724.39
2017-06-20T10:38:48.979Z,95721.10
2017-06-20T10:41:16.541Z,95717.45
2017-06-20T10:47:05.395Z,95716.92
2017-06-20T10:49:36.863Z,95710.91
2017-06-20T10:52:04.422Z,95708.89
2017-06-20T10:54:35.708Z,95712.87
2017-06-20T10:57:07.557Z,95710.28
2017-06-20T10:59:42.233Z,95714.07
2017-06-20T11:02:10.018Z,95700.05
2017-06-20T11:04:37.577Z,95708.11
2017-06-20T11:07:05.168Z,95701.86
2017-06-20T11:09:32.760Z,95706.89
2017-06-20T11:12:00.319Z,95699.02
2017-06-20T11:14:27.874Z,95702.67
2017-06-20T11:16:55.525Z,95700.41
2017-06-20T11:19:23.088Z,95704.32
2017-06-20T11:21:50.642Z,95697.81
2017-06-20T11:24:18.289Z,95707.73
2017-06-20T11:26:46.028Z,95698.73
2017-06-20T11:29:13.638Z,95698.77
2017-06-20T11:31:41.490Z,95702.54
2017-06-20T11:34:09.114Z,95701.72
2017-06-20T11:36:40.241Z,95705.42
2017-06-20T11:39:07.870Z,95688.44
2017-06-20T11:41:39.232Z,95723.38
2017-06-20T11:44:06.851Z,95718.24
2017-06-20T11:46:34.437Z,95717.52
2017-06-20T11:49:02.002Z,95718.07
2017-06-20T11:51:29.578Z,95727.92
2017-06-20T11:53:57.182Z,95718.81
2017-06-20T11:56:32.803Z,95711.86
2017-06-20T11:59:00.406Z,95717.77
2017-06-20T12:01:28.199Z,95712.67
2017-06-20T12:03:59.601Z,95712.28
2017-06-20T12:06:27.202Z,95718.20
2017-06-20T12:08:54.771Z,95707.96
2017-06-20T12:11:22.316Z,95700.34
2017-06-20T12:13:49.918Z,95699.66
2017-06-20T12:16:17.689Z,95697.49
2017-06-20T12:18:45.438Z,95691.95
2017-06-20T12:21:13.025Z,95678.93
2017-06-20T12:23:44.880Z,95682.97
2017-06-20T12:26:19.588Z,95677.99
2017-06-20T12:28:47.168Z,95677.39
2017-06-20T12:31:18.934Z,95674.08
2017-06-20T12:33:46.623Z,95669.95
2017-06-20T12:36:14.169Z,95670.64
2017-06-20T12:38:41.753Z,95658.69
2017-06-20T12:41:09.304Z,95659.95
2017-06-20T12:43:36.927Z,95658.66
2017-06-20T12:46:04.522Z,95660.13
2017-06-20T12:48:32.289Z,95655.70
2017-06-20T12:50:59.840Z,95654.94
2017-06-20T12:53:27.434Z,95652.92
2017-06-20T12:55:55.235Z,95658.34
2017-06-20T12:58:22.772Z,95643.86
2017-06-20T13:00:50.820Z,95639.88
2017-06-20T13:03:18.413Z,95643.66
2017-06-20T13:05:45.982Z,95648.97
2017-06-20T13:08:13.592Z,95643.87
2017-06-20T13:10:41.215Z,95638.16
2017-06-20T13:13:08.806Z,95638.28
2017-06-20T13:15:36.390Z,95635.30
2017-06-20T13:18:03.969Z,95637.23
2017-06-20T13:20:31.770Z,95638.35
2017-06-20T13:23:20.261Z,95639.73
2017-06-20T13:25:47.786Z,95632.47
2017-06-20T13:28:15.354Z,95623.42
2017-06-20T13:30:49.947Z,95581.96
2017-06-20T13:33:17.558Z,95615.67
2017-06-20T13:35:45.172Z,95617.06
2017-06-20T13:38:20.437Z,95622.47
2017-06-20T13:40:48.072Z,95620.98
2017-06-20T13:43:15.657Z,95611.53
2017-06-20T13:45:43.293Z,95608.24
2017-06-20T13:48:10.802Z,95607.39
2017-06-20T13:50:38.630Z,95600.61
2017-06-20T13:53:06.197Z,95595.20
2017-06-20T13:55:33.752Z,95603.57
2017-06-20T13:58:01.299Z,95594.59
2017-06-20T14:00:28.916Z,95592.22
2017-06-20T14:02:56.661Z,95598.28
2017-06-20T14:05:24.166Z,95590.72
2017-06-20T14:07:51.739Z,95589.13
2017-06-20T14:10:19.327Z,95587.54
2017-06-20T14:12:46.892Z,95584.89
2017-06-20T14:15:14.464Z,95573.81
2017-06-20T14:17:42.053Z,95570.89
2017-06-20T14:20:09.611Z,95573.09
2017-06-20T14:22:37.269Z,95565.53
2017-06-20T14:25:05.272Z,95563.96
2017-06-20T14:27:32.816Z,95554.47
2017-06-20T14:30:00.396Z,95563.17
2017-06-20T14:32:29.537Z,95561.30
2017-06-20T14:34:57.089Z,95553.77
2017-06-20T14:37:24.652Z,95554.41
2017-06-20T14:39:52.259Z,95548.53
2017-06-20T14:42:19.901Z,95553.93
2017-06-20T14:44:47.428Z,95544.34
2017-06-20T14:47:15.000Z,95542.45
2017-06-20T14:49:42.524Z,95544.20
2017-06-20T14:52:10.065Z,95539.77
2017-06-20T14:54:37.644Z,95542.68
2017-06-20T14:57:05.231Z,95542.03
2017-06-20T14:59:32.761Z,95533.02
2017-06-20T15:02:00.495Z,95526.63
2017-06-20T15:04:28.053Z,95534.39
2017-06-20T15:06:55.643Z,95532.09
2017-06-20T15:09:23.843Z,95527.41
2017-06-20T15:11:51.454Z,95527.30
2017-06-20T15:14:19.055Z,95526.18
2017-06-20T15:16:46.637Z,95521.08
2017-06-20T15:19:14.161Z,95520.28
2017-06-20T15:21:41.978Z,95526.95
2017-06-20T15:24:09.606Z,95521.69
2017-06-20T15:26:37.186Z,95520.71
2017-06-20T15:29:04.993Z,95524.38
2017-06-20T15:31:32.577Z,95512.97
2017-06-20T15:34:00.309Z,95524.98
2017-06-20T15:36:27.862Z,95519.69
2017-06-20T15:39:02.588Z,95522.28
2017-06-20T15:41:38.572Z,95522.95
2017-06-20T15:44:06.137Z,95518.60
2017-06-20T15:46:40.593Z,95519.87
2017-06-20T15:49:08.232Z,95519.64
2017-06-20T15:51:35.784Z,95516.94
2017-06-20T15:54:03.354Z,95513.04
2017-06-20T15:56:30.975Z,95515.16
2017-06-20T15:58:59.507Z,95512.23
2017-06-20T16:01:27.213Z,95513.42
2017-06-20T16:03:54.754Z,95506.58
2017-06-20T16:06:22.313Z,95506.58
2017-06-20T16:08:49.884Z,95506.07
2017-06-20T16:11:17.429Z,95507.22
2017-06-20T16:13:45.682Z,95507.95
2017-06-20T16:16:14.163Z,95501.78
2017-06-20T16:18:42.390Z,95501.00
2017-06-20T16:21:18.089Z,95507.86
2017-06-20T16:23:46.202Z,95502.03
2017-06-20T16:26:14.290Z,95497.53
2017-06-20T16:28:41.960Z,95505.05
2017-06-20T16:31:09.553Z,95499.84
2017-06-20T16:33:37.428Z,95496.23
2017-06-20T16:36:04.978Z,95489.65
2017-06-20T16:38:32.584Z,95493.94
2017-06-20T16:41:03.657Z,95495.44
2017-06-20T16:43:31.170Z,95501.45
2017-06-20T16:45:59.029Z,95496.66
2017-06-20T16:48:26.618Z,95498.19
2017-06-20T16:50:54.292Z,95503.28
2017-06-20T16:53:22.023Z,95508.56
2017-06-20T16:55:49.534Z,95509.99
2017-06-20T16:58:17.072Z,95513.38
2017-06-20T17:00:52.379Z,95503.91
2017-06-20T17:03:21.035Z,95506.64
2017-06-20T17:05:49.925Z,95501.41
2017-06-20T17:36:01.118Z,95505.30
2017-06-20T17:38:28.617Z,95504.62
2017-06-20T17:40:56.123Z,95500.34
2017-06-20T17:43:23.700Z,95503.39
2017-06-20T17:45:51.223Z,95507.81
2017-06-20T17:48:18.744Z,95506.77
2017-06-20T17:50:46.362Z,95513.04
2017-06-20T17:53:13.869Z,95511.06
2017-06-20T17:55:41.396Z,95515.22
2017-06-20T17:58:08.951Z,95514.45
2017-06-20T18:00:36.604Z,95510.80
2017-06-20T18:03:04.109Z,95510.80
2017-06-20T18:05:31.613Z,95511.09
2017-06-20T18:07:59.218Z,95519.42
2017-06-20T18:10:26.743Z,95525.89
2017-06-20T18:12:54.264Z,95520.22
2017-06-20T18:15:21.823Z,95526.45
2017-06-20T18:17:49.338Z,95534.12
2017-06-20T18:20:16.865Z,95533.95
2017-06-20T18:22:44.569Z,95543.26
2017-06-20T18:25:12.087Z,95554.98
2017-06-20T18:27:39.604Z,95560.94
2017-06-20T18:30:10.362Z,95571.33
2017-06-20T18:32:37.901Z,95568.30
2017-06-20T18:35:05.438Z,95572.17
2017-06-20T18:37:33.141Z,95578.30
2017-06-20T18:40:00.744Z,95569.64
2017-06-20T18:42:28.321Z,95582.17
2017-06-20T18:44:55.899Z,95579.44
2017-06-20T18:47:23.660Z,95583.38
2017-06-20T18:49:51.182Z,95582.95
2017-06-20T18:52:18.742Z,95541.34
2017-06-20T18:54:46.280Z,95584.47
2017-06-20T18:57:13.859Z,95555.95
2017-06-20T18:59:41.468Z,95592.41
2017-06-20T19:02:09.045Z,95594.40
2017-06-20T19:04:36.854Z,95599.42
2017-06-20T19:07:04.390Z,95587.70
2017-06-20T19:09:32.016Z,95576.81
2017-06-20T19:11:59.646Z,95606.28
2017-06-20T19:14:27.176Z,95607.69
2017-06-20T19:16:54.738Z,95602.99
2017-06-20T19:19:22.259Z,95608.61
2017-06-20T19:21:49.769Z,95607.89
2017-06-20T19:24:17.351Z,95613.50
2017-06-20T19:26:44.978Z,95606.07
2017-06-20T19:29:12.534Z,95600.60
2017-06-20T19:31:40.148Z,95606.70
2017-06-20T19:34:07.760Z,95609.05
2017-06-20T19:36:35.282Z,95605.92
2017-06-20T19:39:02.871Z,95608.45
2017-06-20T19:41:30.406Z,95607.30
2017-06-20T19:43:57.971Z,95611.04
2017-06-20T19:46:25.546Z,95606.09
2017-06-20T19:48:53.134Z,95606.90
2017-06-20T19:51:20.665Z,95608.61
2017-06-20T19:53:48.221Z,95607.57
2017-06-20T19:56:15.748Z,95606.48
2017-06-20T19:58:43.265Z,95610.94
2017-06-20T20:01:10.857Z,95588.47
2017-06-20T20:03:38.441Z,95610.97
2017-06-20T20:06:06.034Z,95607.48
2017-06-20T20:08:33.607Z,95612.98
2017-06-20T20:11:01.167Z,95612.09
2017-06-20T20:13:28.738Z,95603.59
2017-06-20T20:15:56.376Z,95604.05
2017-06-20T20:18:23.924Z,95596.98
2017-06-20T20:20:51.504Z,95592.83
2017-06-20T20:23:19.095Z,95593.64
2017-06-20T20:25:46.680Z,95599.53
2017-06-20T20:28:14.478Z,95598.47
2017-06-20T20:30:42.041Z,95597.66
2017-06-20T20:33:09.606Z,95594.41
2017-06-20T20:35:37.129Z,95592.37
2017-06-20T20:38:04.689Z,95588.23
2017-06-20T20:40:32.669Z,95591.97
2017-06-20T20:43:00.410Z,95589.83
2017-06-20T20:45:28.181Z,95590.61
2017-06-20T20:47:55.982Z,95598.20
2017-06-20T20:50:23.510Z,95597.58
2017-06-20T20:52:51.152Z,95602.69
2017-06-20T20:55:18.671Z,95599.52
2017-06-20T20:57:46.181Z,95597.21
2017-06-20T21:00:14.276Z,95598.80
2017-06-20T21:02:41.787Z,95594.06
2017-06-20T21:05:09.301Z,95594.11
2017-06-20T21:07:36.877Z,95596.03
2017-06-20T21:10:04.433Z,95597.11
2017-06-20T21:12:31.964Z,95608.55
2017-06-20T21:14:59.549Z,95600.48
2017-06-20T21:17:27.138Z,95600.42
2017-06-20T21:19:54.669Z,95605.69
2017-06-20T21:22:22.234Z,95594.14
2017-06-20T21:24:49.770Z,95598.04
2017-06-20T21:27:17.284Z,95589.02
2017-06-20T21:29:44.956Z,95586.34
2017-06-20T21:32:12.533Z,95585.56
2017-06-20T21:34:40.097Z,95584.98
2017-06-20T21:37:07.648Z,95589.45
2017-06-20T21:39:35.223Z,95591.29
2017-06-20T21:42:02.787Z,95596.75
2017-06-20T21:44:30.349Z,95596.16
2017-06-20T21:46:57.990Z,95592.27
2017-06-20T21:49:25.561Z,95588.73
2017-06-20T21:51:53.151Z,95584.61
2017-06-20T21:54:20.722Z,95587.80
2017-06-20T21:56:48.281Z,95591.89
2017-06-20T21:59:15.818Z,95581.50
2017-06-20T22:01:43.402Z,95587.99
2017-06-20T22:04:10.908Z,95596.05
2017-06-20T22:06:38.419Z,95590.19
2017-06-20T22:09:06.037Z,95584.48
2017-06-20T22:11:33.553Z,95590.35
2017-06-20T22:14:01.086Z,95592.31
2017-06-20T22:16:28.991Z,95594.28
2017-06-20T22:18:56.489Z,95589.38
2017-06-20T22:21:24.007Z,95596.22
2017-06-20T22:23:51.626Z,95591.13
2017-06-20T22:26:19.145Z,95585.46
2017-06-20T22:28:46.938Z,95587.63
2017-06-20T22:31:14.524Z,95576.66
2017-06-20T22:33:42.099Z,95584.09
2017-06-20T22:36:09.613Z,95576.84
2017-06-20T22:38:37.256Z,95578.59
2017-06-20T22:41:04.766Z,95574.70
2017-06-20T22:43:32.275Z,95577.05
2017-06-20T22:45:59.887Z,95571.36
2017-06-20T22:48:27.440Z,95575.47
2017-06-20T22:50:54.961Z,95565.64
2017-06-20T22:53:22.560Z,95577.17
2017-06-20T22:55:50.114Z,95565.03
2017-06-20T22:58:17.716Z,95560.95
2017-06-20T23:00:45.425Z,95566.80
2017-06-20T23:03:12.940Z,95565.47
2017-06-20T23:05:40.471Z,95563.31
2017-06-20T23:08:08.051Z,95562.33
2017-06-20T23:10:35.575Z,95562.69
2017-06-20T23:13:03.088Z,95562.50
2017-06-20T23:15:30.671Z,95553.48
2017-06-20T23:17:58.198Z,95552.30
2017-06-20T23:20:25.733Z,95557.75
2017-06-20T23:22:53.308Z,95559.68
2017-06-20T23:25:20.826Z,95558.13
2017-06-20T23:27:48.334Z,95563.75
2017-06-20T23:30:16.046Z,95559.13
2017-06-20T23:32:43.587Z,95554.65
2017-06-20T23:35:11.109Z,95558.54
2017-06-20T23:37:38.680Z,95557.22
2017-06-20T23:40:06.221Z,95557.77
2017-06-20T23:42:33.720Z,95561.52
2017-06-20T23:45:01.324Z,95548.17
2017-06-20T23:47:29.211Z,95545.19
2017-06-20T23:49:56.779Z,95544.45
2017-06-20T23:52:24.385Z,95541.28
2017-06-20T23:54:51.896Z,95548.13
2017-06-20T23:57:19.462Z,95548.90
2017-06-20T23:59:47.065Z,95549.74
